sensor_id;sensor_type;location;lat;lon;timestamp;P1;durP1;ratioP1;P2;durP2;ratioP2
38879;SDS011;25887;30.194;-97.880;2023-04-29T00:00:29;2.28;;;1.73;;
38879;SDS011;25887;30.194;-97.880;2023-04-29T00:02:55;6.10;;;2.00;;
38879;SDS011;25887;30.194;-97.880;2023-04-29T00:05:21;3.67;;;2.15;;
38879;SDS011;25887;30.194;-97.880;2023-04-29T00:10:37;2.35;;;1.55;;
38879;SDS011;25887;30.194;-97.880;2023-04-29T00:13:03;5.38;;;1.80;;
38879;SDS011;25887;30.194;-97.880;2023-04-29T00:15:30;5.65;;;2.30;;
38879;SDS011;25887;30.194;-97.880;2023-04-29T00:17:56;7.50;;;1.92;;
38879;SDS011;25887;30.194;-97.880;2023-04-29T00:20:22;3.30;;;1.73;;
38879;SDS011;25887;30.194;-97.880;2023-04-29T00:22:48;3.17;;;2.05;;
38879;SDS011;25887;30.194;-97.880;2023-04-29T00:25:15;2.97;;;1.92;;
38879;SDS011;25887;30.194;-97.880;2023-04-29T00:27:41;3.55;;;2.00;;
38879;SDS011;25887;30.194;-97.880;2023-04-29T00:30:07;3.85;;;2.20;;
38879;SDS011;25887;30.194;-97.880;2023-04-29T00:32:34;3.20;;;1.92;;
38879;SDS011;25887;30.194;-97.880;2023-04-29T00:35:00;3.03;;;1.75;;
38879;SDS011;25887;30.194;-97.880;2023-04-29T00:37:28;4.22;;;1.63;;
38879;SDS011;25887;30.194;-97.880;2023-04-29T00:39:55;6.72;;;1.88;;
38879;SDS011;25887;30.194;-97.880;2023-04-29T00:42:21;2.47;;;1.95;;
38879;SDS011;25887;30.194;-97.880;2023-04-29T00:44:47;2.83;;;1.65;;
38879;SDS011;25887;30.194;-97.880;2023-04-29T00:50:22;2.15;;;1.70;;
38879;SDS011;25887;30.194;-97.880;2023-04-29T00:52:48;2.78;;;1.75;;
38879;SDS011;25887;30.194;-97.880;2023-04-29T00:55:16;5.57;;;1.55;;
38879;SDS011;25887;30.194;-97.880;2023-04-29T00:57:44;3.80;;;1.95;;
38879;SDS011;25887;30.194;-97.880;2023-04-29T01:00:12;2.75;;;1.70;;
38879;SDS011;25887;30.194;-97.880;2023-04-29T01:02:40;1.77;;;1.38;;
38879;SDS011;25887;30.194;-97.880;2023-04-29T01:05:07;2.10;;;1.60;;
38879;SDS011;25887;30.194;-97.880;2023-04-29T01:07:36;3.65;;;1.23;;
38879;SDS011;25887;30.194;-97.880;2023-04-29T01:13:29;2.13;;;1.30;;
38879;SDS011;25887;30.194;-97.880;2023-04-29T01:16:03;1.90;;;1.45;;
38879;SDS011;25887;30.194;-97.880;2023-04-29T01:18:32;9.27;;;2.05;;
38879;SDS011;25887;30.194;-97.880;2023-04-29T01:21:09;1.63;;;1.40;;
38879;SDS011;25887;30.194;-97.880;2023-04-29T01:23:35;1.67;;;1.30;;
38879;SDS011;25887;30.194;-97.880;2023-04-29T01:26:02;2.05;;;1.40;;
38879;SDS011;25887;30.194;-97.880;2023-04-29T01:28:45;3.05;;;1.65;;
38879;SDS011;25887;30.194;-97.880;2023-04-29T01:31:43;6.30;;;1.42;;
38879;SDS011;25887;30.194;-97.880;2023-04-29T01:34:13;4.60;;;1.40;;
38879;SDS011;25887;30.194;-97.880;2023-04-29T01:37:25;2.47;;;1.40;;
38879;SDS011;25887;30.194;-97.880;2023-04-29T01:40:11;2.42;;;1.67;;
38879;SDS011;25887;30.194;-97.880;2023-04-29T01:42:47;2.03;;;1.42;;
38879;SDS011;25887;30.194;-97.880;2023-04-29T01:45:24;2.03;;;1.35;;
38879;SDS011;25887;30.194;-97.880;2023-04-29T01:47:52;1.58;;;1.40;;
38879;SDS011;25887;30.194;-97.880;2023-04-29T01:50:23;3.15;;;1.60;;
38879;SDS011;25887;30.194;-97.880;2023-04-29T01:52:49;6.18;;;2.15;;
38879;SDS011;25887;30.194;-97.880;2023-04-29T01:55:15;3.13;;;1.40;;
38879;SDS011;25887;30.194;-97.880;2023-04-29T01:57:42;3.45;;;1.50;;
38879;SDS011;25887;30.194;-97.880;2023-04-29T02:00:08;1.85;;;1.23;;
38879;SDS011;25887;30.194;-97.880;2023-04-29T02:02:36;4.70;;;1.50;;
38879;SDS011;25887;30.194;-97.880;2023-04-29T02:05:02;0.90;;;0.85;;
38879;SDS011;25887;30.194;-97.880;2023-04-29T02:10:26;2.90;;;1.10;;
38879;SDS011;25887;30.194;-97.880;2023-04-29T02:12:52;1.42;;;1.13;;
38879;SDS011;25887;30.194;-97.880;2023-04-29T02:15:19;4.65;;;1.70;;
38879;SDS011;25887;30.194;-97.880;2023-04-29T02:17:46;1.92;;;1.23;;
38879;SDS011;25887;30.194;-97.880;2023-04-29T02:20:12;4.75;;;1.23;;
38879;SDS011;25887;30.194;-97.880;2023-04-29T02:22:38;1.73;;;1.10;;
38879;SDS011;25887;30.194;-97.880;2023-04-29T02:25:04;1.77;;;1.35;;
38879;SDS011;25887;30.194;-97.880;2023-04-29T02:27:31;1.63;;;1.25;;
38879;SDS011;25887;30.194;-97.880;2023-04-29T02:29:57;2.03;;;1.20;;
38879;SDS011;25887;30.194;-97.880;2023-04-29T02:32:24;1.65;;;1.02;;
38879;SDS011;25887;30.194;-97.880;2023-04-29T02:34:50;3.42;;;1.20;;
38879;SDS011;25887;30.194;-97.880;2023-04-29T02:37:17;2.72;;;1.45;;
38879;SDS011;25887;30.194;-97.880;2023-04-29T02:39:43;5.50;;;1.50;;
38879;SDS011;25887;30.194;-97.880;2023-04-29T02:42:09;1.05;;;0.95;;
38879;SDS011;25887;30.194;-97.880;2023-04-29T02:44:35;1.77;;;1.30;;
38879;SDS011;25887;30.194;-97.880;2023-04-29T02:47:01;5.97;;;1.55;;
38879;SDS011;25887;30.194;-97.880;2023-04-29T02:49:28;3.63;;;1.20;;
38879;SDS011;25887;30.194;-97.880;2023-04-29T02:51:54;1.50;;;1.23;;
38879;SDS011;25887;30.194;-97.880;2023-04-29T02:54:20;2.30;;;1.27;;
38879;SDS011;25887;30.194;-97.880;2023-04-29T02:56:46;0.85;;;0.85;;
38879;SDS011;25887;30.194;-97.880;2023-04-29T02:59:13;3.45;;;1.80;;
38879;SDS011;25887;30.194;-97.880;2023-04-29T03:01:39;1.42;;;1.20;;
38879;SDS011;25887;30.194;-97.880;2023-04-29T03:04:05;3.65;;;1.15;;
38879;SDS011;25887;30.194;-97.880;2023-04-29T03:06:31;2.95;;;1.20;;
38879;SDS011;25887;30.194;-97.880;2023-04-29T03:08:58;1.23;;;1.10;;
38879;SDS011;25887;30.194;-97.880;2023-04-29T03:11:24;3.45;;;1.60;;
38879;SDS011;25887;30.194;-97.880;2023-04-29T03:13:50;1.13;;;1.00;;
38879;SDS011;25887;30.194;-97.880;2023-04-29T03:16:16;3.78;;;1.00;;
38879;SDS011;25887;30.194;-97.880;2023-04-29T03:18:43;2.58;;;1.27;;
38879;SDS011;25887;30.194;-97.880;2023-04-29T03:21:09;1.30;;;0.98;;
38879;SDS011;25887;30.194;-97.880;2023-04-29T03:23:36;4.25;;;1.10;;
38879;SDS011;25887;30.194;-97.880;2023-04-29T03:26:03;2.22;;;1.05;;
38879;SDS011;25887;30.194;-97.880;2023-04-29T03:28:30;1.90;;;1.20;;
38879;SDS011;25887;30.194;-97.880;2023-04-29T03:30:56;1.92;;;0.98;;
38879;SDS011;25887;30.194;-97.880;2023-04-29T03:33:24;4.60;;;1.02;;
38879;SDS011;25887;30.194;-97.880;2023-04-29T03:35:51;1.33;;;1.00;;
38879;SDS011;25887;30.194;-97.880;2023-04-29T03:38:17;2.03;;;1.00;;
38879;SDS011;25887;30.194;-97.880;2023-04-29T03:40:43;2.90;;;1.08;;
38879;SDS011;25887;30.194;-97.880;2023-04-29T03:43:12;1.58;;;1.15;;
38879;SDS011;25887;30.194;-97.880;2023-04-29T03:45:38;1.05;;;0.73;;
38879;SDS011;25887;30.194;-97.880;2023-04-29T03:48:07;0.70;;;0.70;;
38879;SDS011;25887;30.194;-97.880;2023-04-29T03:50:34;2.05;;;0.82;;
38879;SDS011;25887;30.194;-97.880;2023-04-29T03:53:01;1.63;;;0.80;;
38879;SDS011;25887;30.194;-97.880;2023-04-29T03:55:28;2.42;;;0.82;;
38879;SDS011;25887;30.194;-97.880;2023-04-29T03:57:54;1.63;;;1.05;;
38879;SDS011;25887;30.194;-97.880;2023-04-29T04:00:23;1.63;;;1.00;;
38879;SDS011;25887;30.194;-97.880;2023-04-29T04:02:51;2.83;;;0.63;;
38879;SDS011;25887;30.194;-97.880;2023-04-29T04:05:18;1.17;;;1.08;;
38879;SDS011;25887;30.194;-97.880;2023-04-29T04:07:45;0.73;;;0.73;;
38879;SDS011;25887;30.194;-97.880;2023-04-29T04:10:12;1.48;;;0.70;;
38879;SDS011;25887;30.194;-97.880;2023-04-29T04:12:38;0.70;;;0.60;;
38879;SDS011;25887;30.194;-97.880;2023-04-29T04:15:10;1.17;;;0.80;;
38879;SDS011;25887;30.194;-97.880;2023-04-29T04:17:38;2.05;;;1.00;;
38879;SDS011;25887;30.194;-97.880;2023-04-29T04:20:05;3.03;;;0.80;;
38879;SDS011;25887;30.194;-97.880;2023-04-29T04:22:31;0.95;;;0.85;;
38879;SDS011;25887;30.194;-97.880;2023-04-29T04:24:58;1.77;;;0.90;;
38879;SDS011;25887;30.194;-97.880;2023-04-29T04:27:24;0.95;;;0.80;;
38879;SDS011;25887;30.194;-97.880;2023-04-29T04:29:53;1.50;;;0.70;;
38879;SDS011;25887;30.194;-97.880;2023-04-29T04:32:22;0.77;;;0.65;;
38879;SDS011;25887;30.194;-97.880;2023-04-29T04:34:49;1.20;;;0.77;;
38879;SDS011;25887;30.194;-97.880;2023-04-29T04:37:16;1.65;;;0.65;;
38879;SDS011;25887;30.194;-97.880;2023-04-29T04:39:43;0.85;;;0.77;;
38879;SDS011;25887;30.194;-97.880;2023-04-29T04:42:09;1.73;;;1.10;;
38879;SDS011;25887;30.194;-97.880;2023-04-29T04:44:36;0.75;;;0.60;;
38879;SDS011;25887;30.194;-97.880;2023-04-29T04:47:02;0.32;;;0.32;;
38879;SDS011;25887;30.194;-97.880;2023-04-29T04:49:30;1.30;;;0.85;;
38879;SDS011;25887;30.194;-97.880;2023-04-29T04:51:56;1.25;;;0.60;;
38879;SDS011;25887;30.194;-97.880;2023-04-29T04:54:23;1.00;;;0.50;;
38879;SDS011;25887;30.194;-97.880;2023-04-29T04:56:49;1.75;;;1.40;;
38879;SDS011;25887;30.194;-97.880;2023-04-29T04:59:16;0.65;;;0.50;;
38879;SDS011;25887;30.194;-97.880;2023-04-29T05:01:42;1.48;;;0.60;;
38879;SDS011;25887;30.194;-97.880;2023-04-29T05:04:09;0.57;;;0.55;;
38879;SDS011;25887;30.194;-97.880;2023-04-29T05:06:35;0.63;;;0.40;;
38879;SDS011;25887;30.194;-97.880;2023-04-29T05:09:01;0.47;;;0.40;;
38879;SDS011;25887;30.194;-97.880;2023-04-29T05:11:28;2.08;;;0.45;;
38879;SDS011;25887;30.194;-97.880;2023-04-29T05:13:54;0.25;;;0.25;;
38879;SDS011;25887;30.194;-97.880;2023-04-29T05:16:20;0.38;;;0.30;;
38879;SDS011;25887;30.194;-97.880;2023-04-29T05:18:46;0.25;;;0.20;;
38879;SDS011;25887;30.194;-97.880;2023-04-29T05:21:13;1.55;;;0.30;;
38879;SDS011;25887;30.194;-97.880;2023-04-29T05:23:39;0.30;;;0.20;;
38879;SDS011;25887;30.194;-97.880;2023-04-29T05:26:06;0.38;;;0.35;;
38879;SDS011;25887;30.194;-97.880;2023-04-29T05:28:32;0.20;;;0.20;;
38879;SDS011;25887;30.194;-97.880;2023-04-29T05:30:58;3.08;;;0.55;;
38879;SDS011;25887;30.194;-97.880;2023-04-29T05:33:24;0.60;;;0.32;;
38879;SDS011;25887;30.194;-97.880;2023-04-29T05:35:50;3.83;;;0.57;;
38879;SDS011;25887;30.194;-97.880;2023-04-29T05:38:16;0.65;;;0.30;;
38879;SDS011;25887;30.194;-97.880;2023-04-29T05:40:42;0.20;;;0.20;;
38879;SDS011;25887;30.194;-97.880;2023-04-29T05:43:09;0.38;;;0.38;;
38879;SDS011;25887;30.194;-97.880;2023-04-29T05:48:50;0.10;;;0.10;;
38879;SDS011;25887;30.194;-97.880;2023-04-29T05:51:17;0.20;;;0.20;;
38879;SDS011;25887;30.194;-97.880;2023-04-29T05:53:43;0.10;;;0.10;;
38879;SDS011;25887;30.194;-97.880;2023-04-29T05:56:10;0.52;;;0.30;;
38879;SDS011;25887;30.194;-97.880;2023-04-29T05:58:36;0.30;;;0.30;;
38879;SDS011;25887;30.194;-97.880;2023-04-29T06:01:02;0.40;;;0.20;;
38879;SDS011;25887;30.194;-97.880;2023-04-29T06:03:29;0.70;;;0.20;;
38879;SDS011;25887;30.194;-97.880;2023-04-29T06:05:55;0.08;;;0.08;;
38879;SDS011;25887;30.194;-97.880;2023-04-29T06:08:22;0.10;;;0.10;;
38879;SDS011;25887;30.194;-97.880;2023-04-29T06:10:48;0.30;;;0.20;;
38879;SDS011;25887;30.194;-97.880;2023-04-29T06:13:16;0.10;;;0.10;;
38879;SDS011;25887;30.194;-97.880;2023-04-29T06:15:45;2.33;;;0.30;;
38879;SDS011;25887;30.194;-97.880;2023-04-29T06:18:11;1.00;;;0.28;;
38879;SDS011;25887;30.194;-97.880;2023-04-29T06:20:38;0.38;;;0.13;;
38879;SDS011;25887;30.194;-97.880;2023-04-29T06:23:04;1.85;;;0.20;;
38879;SDS011;25887;30.194;-97.880;2023-04-29T06:25:30;0.10;;;0.10;;
38879;SDS011;25887;30.194;-97.880;2023-04-29T06:27:56;0.20;;;0.08;;
38879;SDS011;25887;30.194;-97.880;2023-04-29T06:30:23;0.05;;;0.05;;
38879;SDS011;25887;30.194;-97.880;2023-04-29T06:32:49;0.15;;;0.15;;
38879;SDS011;25887;30.194;-97.880;2023-04-29T06:35:16;0.10;;;0.10;;
38879;SDS011;25887;30.194;-97.880;2023-04-29T06:37:42;0.10;;;0.10;;
38879;SDS011;25887;30.194;-97.880;2023-04-29T06:40:08;0.00;;;0.00;;
38879;SDS011;25887;30.194;-97.880;2023-04-29T06:42:35;0.43;;;0.20;;
38879;SDS011;25887;30.194;-97.880;2023-04-29T06:45:01;0.63;;;0.15;;
38879;SDS011;25887;30.194;-97.880;2023-04-29T06:47:27;0.20;;;0.13;;
38879;SDS011;25887;30.194;-97.880;2023-04-29T06:49:53;0.80;;;0.20;;
38879;SDS011;25887;30.194;-97.880;2023-04-29T06:52:20;0.25;;;0.25;;
38879;SDS011;25887;30.194;-97.880;2023-04-29T06:54:46;0.22;;;0.15;;
38879;SDS011;25887;30.194;-97.880;2023-04-29T06:57:12;0.20;;;0.10;;
38879;SDS011;25887;30.194;-97.880;2023-04-29T06:59:38;0.10;;;0.10;;
38879;SDS011;25887;30.194;-97.880;2023-04-29T07:02:04;0.03;;;0.03;;
38879;SDS011;25887;30.194;-97.880;2023-04-29T07:04:31;0.15;;;0.15;;
38879;SDS011;25887;30.194;-97.880;2023-04-29T07:06:57;0.20;;;0.17;;
38879;SDS011;25887;30.194;-97.880;2023-04-29T07:09:24;0.60;;;0.20;;
38879;SDS011;25887;30.194;-97.880;2023-04-29T07:11:52;0.15;;;0.13;;
38879;SDS011;25887;30.194;-97.880;2023-04-29T07:14:20;0.10;;;0.10;;
38879;SDS011;25887;30.194;-97.880;2023-04-29T07:16:52;0.98;;;0.52;;
38879;SDS011;25887;30.194;-97.880;2023-04-29T07:19:19;0.20;;;0.10;;
38879;SDS011;25887;30.194;-97.880;2023-04-29T07:21:45;0.20;;;0.20;;
38879;SDS011;25887;30.194;-97.880;2023-04-29T07:24:13;1.17;;;0.30;;
38879;SDS011;25887;30.194;-97.880;2023-04-29T07:26:41;0.10;;;0.10;;
38879;SDS011;25887;30.194;-97.880;2023-04-29T07:29:09;0.00;;;0.00;;
38879;SDS011;25887;30.194;-97.880;2023-04-29T07:31:35;0.10;;;0.10;;
38879;SDS011;25887;30.194;-97.880;2023-04-29T07:34:02;0.15;;;0.10;;
38879;SDS011;25887;30.194;-97.880;2023-04-29T07:36:30;0.30;;;0.22;;
38879;SDS011;25887;30.194;-97.880;2023-04-29T07:38:57;0.05;;;0.05;;
38879;SDS011;25887;30.194;-97.880;2023-04-29T07:41:23;0.20;;;0.20;;
38879;SDS011;25887;30.194;-97.880;2023-04-29T07:43:49;0.30;;;0.30;;
38879;SDS011;25887;30.194;-97.880;2023-04-29T07:46:15;0.85;;;0.15;;
38879;SDS011;25887;30.194;-97.880;2023-04-29T07:48:42;1.45;;;0.40;;
38879;SDS011;25887;30.194;-97.880;2023-04-29T07:51:13;0.28;;;0.10;;
38879;SDS011;25887;30.194;-97.880;2023-04-29T07:53:39;0.17;;;0.17;;
38879;SDS011;25887;30.194;-97.880;2023-04-29T07:56:06;0.20;;;0.20;;
38879;SDS011;25887;30.194;-97.880;2023-04-29T07:58:33;0.22;;;0.22;;
38879;SDS011;25887;30.194;-97.880;2023-04-29T08:01:06;0.38;;;0.20;;
38879;SDS011;25887;30.194;-97.880;2023-04-29T08:03:35;0.17;;;0.15;;
38879;SDS011;25887;30.194;-97.880;2023-04-29T08:06:02;0.20;;;0.20;;
38879;SDS011;25887;30.194;-97.880;2023-04-29T08:08:31;0.25;;;0.20;;
38879;SDS011;25887;30.194;-97.880;2023-04-29T08:10:58;0.45;;;0.25;;
38879;SDS011;25887;30.194;-97.880;2023-04-29T08:13:24;0.20;;;0.20;;
38879;SDS011;25887;30.194;-97.880;2023-04-29T08:15:50;0.20;;;0.20;;
38879;SDS011;25887;30.194;-97.880;2023-04-29T08:18:17;0.40;;;0.10;;
38879;SDS011;25887;30.194;-97.880;2023-04-29T08:20:47;0.10;;;0.10;;
38879;SDS011;25887;30.194;-97.880;2023-04-29T08:23:16;0.10;;;0.10;;
38879;SDS011;25887;30.194;-97.880;2023-04-29T08:25:43;3.65;;;0.40;;
38879;SDS011;25887;30.194;-97.880;2023-04-29T08:28:09;0.22;;;0.20;;
38879;SDS011;25887;30.194;-97.880;2023-04-29T08:30:39;0.35;;;0.20;;
38879;SDS011;25887;30.194;-97.880;2023-04-29T08:33:06;0.00;;;0.00;;
38879;SDS011;25887;30.194;-97.880;2023-04-29T08:35:32;0.20;;;0.20;;
38879;SDS011;25887;30.194;-97.880;2023-04-29T08:38:02;2.67;;;0.30;;
38879;SDS011;25887;30.194;-97.880;2023-04-29T08:40:30;0.20;;;0.20;;
38879;SDS011;25887;30.194;-97.880;2023-04-29T08:42:58;0.98;;;0.30;;
38879;SDS011;25887;30.194;-97.880;2023-04-29T08:45:26;0.30;;;0.30;;
38879;SDS011;25887;30.194;-97.880;2023-04-29T08:47:54;0.32;;;0.32;;
38879;SDS011;25887;30.194;-97.880;2023-04-29T08:50:21;2.65;;;0.17;;
38879;SDS011;25887;30.194;-97.880;2023-04-29T08:52:49;1.67;;;0.38;;
38879;SDS011;25887;30.194;-97.880;2023-04-29T08:55:16;0.20;;;0.20;;
38879;SDS011;25887;30.194;-97.880;2023-04-29T08:57:43;0.17;;;0.17;;
38879;SDS011;25887;30.194;-97.880;2023-04-29T09:00:11;4.10;;;0.40;;
38879;SDS011;25887;30.194;-97.880;2023-04-29T09:02:40;0.20;;;0.20;;
38879;SDS011;25887;30.194;-97.880;2023-04-29T09:05:10;0.10;;;0.10;;
38879;SDS011;25887;30.194;-97.880;2023-04-29T09:07:37;1.55;;;0.90;;
38879;SDS011;25887;30.194;-97.880;2023-04-29T09:10:04;0.68;;;0.47;;
38879;SDS011;25887;30.194;-97.880;2023-04-29T09:12:31;0.35;;;0.22;;
38879;SDS011;25887;30.194;-97.880;2023-04-29T09:14:57;0.50;;;0.40;;
38879;SDS011;25887;30.194;-97.880;2023-04-29T09:17:39;0.30;;;0.30;;
38879;SDS011;25887;30.194;-97.880;2023-04-29T09:22:52;0.30;;;0.30;;
38879;SDS011;25887;30.194;-97.880;2023-04-29T09:25:20;0.52;;;0.35;;
38879;SDS011;25887;30.194;-97.880;2023-04-29T09:27:48;0.30;;;0.30;;
38879;SDS011;25887;30.194;-97.880;2023-04-29T09:30:15;0.30;;;0.30;;
38879;SDS011;25887;30.194;-97.880;2023-04-29T09:32:42;0.38;;;0.38;;
38879;SDS011;25887;30.194;-97.880;2023-04-29T09:35:28;0.30;;;0.30;;
38879;SDS011;25887;30.194;-97.880;2023-04-29T09:38:09;0.40;;;0.40;;
38879;SDS011;25887;30.194;-97.880;2023-04-29T09:40:37;0.50;;;0.30;;
38879;SDS011;25887;30.194;-97.880;2023-04-29T09:43:04;0.20;;;0.20;;
38879;SDS011;25887;30.194;-97.880;2023-04-29T09:45:42;0.82;;;0.40;;
38879;SDS011;25887;30.194;-97.880;2023-04-29T09:48:10;0.30;;;0.30;;
38879;SDS011;25887;30.194;-97.880;2023-04-29T09:50:37;0.10;;;0.10;;
38879;SDS011;25887;30.194;-97.880;2023-04-29T09:53:06;0.68;;;0.40;;
38879;SDS011;25887;30.194;-97.880;2023-04-29T09:55:34;0.52;;;0.50;;
38879;SDS011;25887;30.194;-97.880;2023-04-29T09:58:00;0.25;;;0.25;;
38879;SDS011;25887;30.194;-97.880;2023-04-29T10:00:29;0.38;;;0.38;;
38879;SDS011;25887;30.194;-97.880;2023-04-29T10:02:58;0.15;;;0.15;;
38879;SDS011;25887;30.194;-97.880;2023-04-29T10:05:28;0.43;;;0.30;;
38879;SDS011;25887;30.194;-97.880;2023-04-29T10:07:56;0.50;;;0.40;;
38879;SDS011;25887;30.194;-97.880;2023-04-29T10:10:24;0.45;;;0.30;;
38879;SDS011;25887;30.194;-97.880;2023-04-29T10:12:52;0.30;;;0.30;;
38879;SDS011;25887;30.194;-97.880;2023-04-29T10:15:22;0.32;;;0.30;;
38879;SDS011;25887;30.194;-97.880;2023-04-29T10:18:19;0.90;;;0.32;;
38879;SDS011;25887;30.194;-97.880;2023-04-29T10:20:47;0.40;;;0.40;;
38879;SDS011;25887;30.194;-97.880;2023-04-29T10:23:14;0.43;;;0.40;;
38879;SDS011;25887;30.194;-97.880;2023-04-29T10:25:41;0.40;;;0.40;;
38879;SDS011;25887;30.194;-97.880;2023-04-29T10:28:11;0.30;;;0.30;;
38879;SDS011;25887;30.194;-97.880;2023-04-29T10:30:44;0.57;;;0.52;;
38879;SDS011;25887;30.194;-97.880;2023-04-29T10:33:14;0.37;;;0.37;;
38879;SDS011;25887;30.194;-97.880;2023-04-29T10:35:42;0.70;;;0.52;;
38879;SDS011;25887;30.194;-97.880;2023-04-29T10:38:22;0.52;;;0.30;;
38879;SDS011;25887;30.194;-97.880;2023-04-29T10:41:14;0.60;;;0.35;;
38879;SDS011;25887;30.194;-97.880;2023-04-29T10:43:53;0.43;;;0.43;;
38879;SDS011;25887;30.194;-97.880;2023-04-29T10:46:22;0.30;;;0.30;;
38879;SDS011;25887;30.194;-97.880;2023-04-29T10:48:57;0.40;;;0.40;;
38879;SDS011;25887;30.194;-97.880;2023-04-29T10:51:28;0.75;;;0.60;;
38879;SDS011;25887;30.194;-97.880;2023-04-29T10:56:39;0.22;;;0.20;;
38879;SDS011;25887;30.194;-97.880;2023-04-29T10:59:19;0.43;;;0.30;;
38879;SDS011;25887;30.194;-97.880;2023-04-29T11:04:19;0.40;;;0.40;;
38879;SDS011;25887;30.194;-97.880;2023-04-29T11:06:49;0.28;;;0.28;;
38879;SDS011;25887;30.194;-97.880;2023-04-29T11:09:25;0.30;;;0.30;;
38879;SDS011;25887;30.194;-97.880;2023-04-29T11:14:36;1.52;;;0.52;;
38879;SDS011;25887;30.194;-97.880;2023-04-29T11:17:10;0.60;;;0.38;;
38879;SDS011;25887;30.194;-97.880;2023-04-29T11:19:42;1.05;;;0.40;;
38879;SDS011;25887;30.194;-97.880;2023-04-29T11:22:11;0.35;;;0.35;;
38879;SDS011;25887;30.194;-97.880;2023-04-29T11:24:49;0.50;;;0.50;;
38879;SDS011;25887;30.194;-97.880;2023-04-29T11:27:25;0.50;;;0.50;;
38879;SDS011;25887;30.194;-97.880;2023-04-29T11:29:58;2.75;;;0.90;;
38879;SDS011;25887;30.194;-97.880;2023-04-29T11:32:28;0.43;;;0.43;;
38879;SDS011;25887;30.194;-97.880;2023-04-29T11:35:13;0.30;;;0.30;;
38879;SDS011;25887;30.194;-97.880;2023-04-29T11:37:41;0.55;;;0.55;;
38879;SDS011;25887;30.194;-97.880;2023-04-29T11:40:11;0.63;;;0.52;;
38879;SDS011;25887;30.194;-97.880;2023-04-29T11:42:45;0.30;;;0.30;;
38879;SDS011;25887;30.194;-97.880;2023-04-29T11:47:43;0.22;;;0.22;;
38879;SDS011;25887;30.194;-97.880;2023-04-29T11:50:10;0.55;;;0.55;;
38879;SDS011;25887;30.194;-97.880;2023-04-29T11:52:40;0.50;;;0.50;;
38879;SDS011;25887;30.194;-97.880;2023-04-29T11:55:09;0.43;;;0.40;;
38879;SDS011;25887;30.194;-97.880;2023-04-29T11:57:36;0.40;;;0.20;;
38879;SDS011;25887;30.194;-97.880;2023-04-29T12:00:03;0.77;;;0.60;;
38879;SDS011;25887;30.194;-97.880;2023-04-29T12:02:30;0.47;;;0.28;;
38879;SDS011;25887;30.194;-97.880;2023-04-29T12:04:58;0.30;;;0.30;;
38879;SDS011;25887;30.194;-97.880;2023-04-29T12:07:27;0.50;;;0.35;;
38879;SDS011;25887;30.194;-97.880;2023-04-29T12:09:54;0.50;;;0.40;;
38879;SDS011;25887;30.194;-97.880;2023-04-29T12:12:22;0.60;;;0.60;;
38879;SDS011;25887;30.194;-97.880;2023-04-29T12:14:49;5.07;;;0.52;;
38879;SDS011;25887;30.194;-97.880;2023-04-29T12:17:16;0.82;;;0.47;;
38879;SDS011;25887;30.194;-97.880;2023-04-29T12:19:43;0.30;;;0.28;;
38879;SDS011;25887;30.194;-97.880;2023-04-29T12:22:10;0.40;;;0.40;;
38879;SDS011;25887;30.194;-97.880;2023-04-29T12:24:36;2.28;;;0.40;;
38879;SDS011;25887;30.194;-97.880;2023-04-29T12:27:07;0.60;;;0.50;;
38879;SDS011;25887;30.194;-97.880;2023-04-29T12:29:37;0.73;;;0.63;;
38879;SDS011;25887;30.194;-97.880;2023-04-29T12:32:05;0.70;;;0.60;;
38879;SDS011;25887;30.194;-97.880;2023-04-29T12:34:31;0.68;;;0.40;;
38879;SDS011;25887;30.194;-97.880;2023-04-29T12:40:20;0.70;;;0.50;;
38879;SDS011;25887;30.194;-97.880;2023-04-29T12:42:47;0.63;;;0.60;;
38879;SDS011;25887;30.194;-97.880;2023-04-29T12:48:32;1.08;;;0.50;;
38879;SDS011;25887;30.194;-97.880;2023-04-29T12:51:01;0.70;;;0.40;;
38879;SDS011;25887;30.194;-97.880;2023-04-29T12:53:28;0.63;;;0.40;;
38879;SDS011;25887;30.194;-97.880;2023-04-29T12:55:55;0.50;;;0.40;;
38879;SDS011;25887;30.194;-97.880;2023-04-29T12:58:22;1.10;;;0.32;;
38879;SDS011;25887;30.194;-97.880;2023-04-29T13:00:49;1.05;;;0.50;;
38879;SDS011;25887;30.194;-97.880;2023-04-29T13:03:15;0.45;;;0.40;;
38879;SDS011;25887;30.194;-97.880;2023-04-29T13:05:41;1.02;;;0.60;;
38879;SDS011;25887;30.194;-97.880;2023-04-29T13:08:08;0.93;;;0.60;;
38879;SDS011;25887;30.194;-97.880;2023-04-29T13:10:34;0.80;;;0.50;;
38879;SDS011;25887;30.194;-97.880;2023-04-29T13:13:00;0.40;;;0.40;;
38879;SDS011;25887;30.194;-97.880;2023-04-29T13:15:26;0.43;;;0.40;;
38879;SDS011;25887;30.194;-97.880;2023-04-29T13:17:53;4.90;;;0.40;;
38879;SDS011;25887;30.194;-97.880;2023-04-29T13:20:20;0.30;;;0.30;;
38879;SDS011;25887;30.194;-97.880;2023-04-29T13:22:46;0.47;;;0.40;;
38879;SDS011;25887;30.194;-97.880;2023-04-29T13:25:12;0.55;;;0.55;;
38879;SDS011;25887;30.194;-97.880;2023-04-29T13:27:41;3.35;;;0.40;;
38879;SDS011;25887;30.194;-97.880;2023-04-29T13:30:08;0.20;;;0.20;;
38879;SDS011;25887;30.194;-97.880;2023-04-29T13:32:35;1.00;;;0.50;;
38879;SDS011;25887;30.194;-97.880;2023-04-29T13:35:01;0.75;;;0.55;;
38879;SDS011;25887;30.194;-97.880;2023-04-29T13:37:28;1.80;;;0.70;;
38879;SDS011;25887;30.194;-97.880;2023-04-29T13:39:54;2.35;;;0.43;;
38879;SDS011;25887;30.194;-97.880;2023-04-29T13:45:42;0.52;;;0.52;;
38879;SDS011;25887;30.194;-97.880;2023-04-29T13:51:16;0.93;;;0.45;;
38879;SDS011;25887;30.194;-97.880;2023-04-29T13:56:48;0.93;;;0.70;;
38879;SDS011;25887;30.194;-97.880;2023-04-29T13:59:16;1.48;;;0.70;;
38879;SDS011;25887;30.194;-97.880;2023-04-29T14:01:42;1.20;;;0.60;;
38879;SDS011;25887;30.194;-97.880;2023-04-29T14:04:10;0.73;;;0.52;;
38879;SDS011;25887;30.194;-97.880;2023-04-29T14:06:36;0.88;;;0.70;;
38879;SDS011;25887;30.194;-97.880;2023-04-29T14:09:02;2.13;;;0.70;;
38879;SDS011;25887;30.194;-97.880;2023-04-29T14:11:28;0.75;;;0.40;;
38879;SDS011;25887;30.194;-97.880;2023-04-29T14:13:55;3.55;;;0.50;;
38879;SDS011;25887;30.194;-97.880;2023-04-29T14:16:21;0.38;;;0.38;;
38879;SDS011;25887;30.194;-97.880;2023-04-29T14:18:47;0.45;;;0.45;;
38879;SDS011;25887;30.194;-97.880;2023-04-29T14:21:13;3.42;;;0.60;;
38879;SDS011;25887;30.194;-97.880;2023-04-29T14:23:40;0.93;;;0.73;;
38879;SDS011;25887;30.194;-97.880;2023-04-29T14:26:06;0.70;;;0.50;;
38879;SDS011;25887;30.194;-97.880;2023-04-29T14:28:33;0.55;;;0.47;;
38879;SDS011;25887;30.194;-97.880;2023-04-29T14:31:00;0.52;;;0.50;;
38879;SDS011;25887;30.194;-97.880;2023-04-29T14:33:27;2.53;;;0.70;;
38879;SDS011;25887;30.194;-97.880;2023-04-29T14:35:53;0.73;;;0.60;;
38879;SDS011;25887;30.194;-97.880;2023-04-29T14:38:19;0.40;;;0.40;;
38879;SDS011;25887;30.194;-97.880;2023-04-29T14:40:45;1.33;;;0.55;;
38879;SDS011;25887;30.194;-97.880;2023-04-29T14:43:12;0.55;;;0.50;;
38879;SDS011;25887;30.194;-97.880;2023-04-29T14:45:38;1.75;;;0.63;;
38879;SDS011;25887;30.194;-97.880;2023-04-29T14:48:05;0.60;;;0.60;;
38879;SDS011;25887;30.194;-97.880;2023-04-29T14:50:32;2.40;;;0.57;;
38879;SDS011;25887;30.194;-97.880;2023-04-29T14:52:58;0.57;;;0.57;;
38879;SDS011;25887;30.194;-97.880;2023-04-29T14:55:25;0.22;;;0.22;;
38879;SDS011;25887;30.194;-97.880;2023-04-29T14:57:52;0.95;;;0.50;;
38879;SDS011;25887;30.194;-97.880;2023-04-29T15:00:18;0.50;;;0.50;;
38879;SDS011;25887;30.194;-97.880;2023-04-29T15:02:45;0.85;;;0.85;;
38879;SDS011;25887;30.194;-97.880;2023-04-29T15:05:11;2.28;;;0.30;;
38879;SDS011;25887;30.194;-97.880;2023-04-29T15:07:37;0.47;;;0.43;;
38879;SDS011;25887;30.194;-97.880;2023-04-29T15:10:04;0.73;;;0.60;;